Time;durP1;ratioP1;P1;durP2;ratioP2;P2;SDS_P1;SDS_P2;PMS_P1;PMS_P2;Temp;Humidity;BMP_temperature;BMP_pressure;BME280_temperature;BME280_humidity;BME280_pressure;Samples;Min_cycle;Max_cycle;Signal;HPM_P1;HPM_P2
2022/08/05 00:00:19;;;;;;;4.90;3.70;;;;;;;18.93;63.33;98429.09;106209;1280;25242;-78
2022/08/05 00:03:04;;;;;;;4.00;3.50;;;;;;;18.91;63.50;98425.59;105879;1275;25235;-79
2022/08/05 00:05:30;;;;;;;5.60;3.90;;;;;;;18.90;63.36;98427.05;106394;1274;137817;-78
2022/08/05 00:07:57;;;;;;;5.60;4.60;;;;;;;18.88;63.59;98428.02;106686;1274;22708;-79
2022/08/05 00:10:24;;;;;;;5.70;3.80;;;;;;;18.87;63.74;98426.48;106355;1274;137647;-78
2022/08/05 00:12:51;;;;;;;4.70;3.50;;;;;;;18.86;63.47;98426.90;106672;1274;22811;-79
2022/08/05 00:15:18;;;;;;;7.90;3.90;;;;;;;18.85;63.65;98424.93;106254;1276;24062;-78
2022/08/05 00:17:45;;;;;;;5.10;3.70;;;;;;;18.83;63.70;98421.86;106803;1277;137923;-80
2022/08/05 00:20:12;;;;;;;4.00;3.50;;;;;;;18.81;63.77;98422.59;107092;1277;22551;-79
2022/08/05 00:22:39;;;;;;;5.90;3.90;;;;;;;18.77;64.41;98421.71;106558;1274;137441;-78
2022/08/05 00:25:06;;;;;;;6.20;4.00;;;;;;;18.73;64.49;98418.55;106537;1274;25445;-78
2022/08/05 00:27:33;;;;;;;5.40;3.70;;;;;;;18.68;64.63;98420.80;106257;1274;22552;-78
2022/08/05 00:30:00;;;;;;;5.20;3.60;;;;;;;18.65;64.35;98419.02;106562;1274;138237;-78
2022/08/05 00:32:27;;;;;;;4.70;3.90;;;;;;;18.62;64.46;98416.41;106374;1274;23698;-80
2022/08/05 00:34:53;;;;;;;6.60;4.20;;;;;;;18.59;64.44;98415.79;106198;1277;138378;-80
2022/08/05 00:37:20;;;;;;;8.50;4.10;;;;;;;18.57;64.64;98415.78;106635;1277;22574;-80
2022/08/05 00:39:47;;;;;;;5.40;4.10;;;;;;;18.54;64.56;98412.84;106401;1276;138302;-80
2022/08/05 00:42:15;;;;;;;4.90;3.90;;;;;;;18.51;64.59;98412.94;106475;1277;23116;-80
2022/08/05 00:44:42;;;;;;;6.70;4.50;;;;;;;18.50;64.53;98412.69;106799;1274;24376;-80
2022/08/05 00:47:09;;;;;;;8.40;4.20;;;;;;;18.48;64.69;98411.27;106588;1274;137381;-78
2022/08/05 00:49:36;;;;;;;5.40;4.30;;;;;;;18.45;65.03;98409.55;106605;1274;22622;-80
2022/08/05 00:52:03;;;;;;;6.00;4.30;;;;;;;18.43;64.97;98408.31;106743;1274;137786;-80
2022/08/05 00:54:30;;;;;;;6.80;3.60;;;;;;;18.39;65.43;98404.94;106780;1274;22633;-78
2022/08/05 00:56:57;;;;;;;6.20;3.80;;;;;;;18.36;65.91;98405.10;106093;1277;22571;-80
2022/08/05 00:59:24;;;;;;;5.70;4.00;;;;;;;18.32;66.14;98405.37;106146;1277;138328;-80
2022/08/05 01:01:50;;;;;;;6.10;3.80;;;;;;;18.32;66.23;98403.73;106376;1277;23729;-80
2022/08/05 01:04:17;;;;;;;5.00;4.00;;;;;;;18.30;65.93;98401.92;106383;1274;138461;-80
2022/08/05 01:06:46;;;;;;;9.70;4.30;;;;;;;18.29;66.28;98400.46;106504;1274;25300;-78
2022/08/05 01:09:13;;;;;;;6.70;4.20;;;;;;;18.27;66.58;98402.13;106748;1274;24216;-78
2022/08/05 01:11:42;;;;;;;7.70;4.30;;;;;;;18.25;66.90;98399.14;106049;1274;138591;-80
2022/08/05 01:14:20;;;;;;;6.50;4.00;;;;;;;18.24;67.19;98394.85;106724;1274;23020;-78
2022/08/05 01:16:52;;;;;;;8.20;4.50;;;;;;;18.24;67.34;98390.88;106634;1275;137899;-78
2022/08/05 01:19:22;;;;;;;5.10;4.10;;;;;;;18.25;67.33;98392.13;106054;1276;22611;-80
2022/08/05 01:22:14;;;;;;;4.90;4.20;;;;;;;18.24;67.42;98387.51;106273;1277;137571;-80
2022/08/05 01:24:56;;;;;;;5.50;4.40;;;;;;;18.23;67.51;98389.41;106310;1274;25322;-80
2022/08/05 01:28:01;;;;;;;9.60;4.80;;;;;;;18.20;67.58;98387.51;106435;1274;22753;-81
2022/08/05 01:30:33;;;;;;;7.10;4.60;;;;;;;18.18;67.67;98391.01;106367;1274;22654;-80
2022/08/05 01:33:08;;;;;;;7.90;4.60;;;;;;;18.14;67.60;98387.04;106194;1274;24369;-81
2022/08/05 01:35:40;;;;;;;5.20;4.70;;;;;;;18.14;67.49;98381.42;106209;1274;138112;-80
2022/08/05 01:38:08;;;;;;;6.70;4.20;;;;;;;18.13;67.64;98382.98;106684;1277;22545;-79
2022/08/05 01:40:37;;;;;;;;;;;;;;;18.13;67.85;98382.38;108143;1277;137540;-79
2022/08/05 01:43:06;;;;;;;8.00;5.20;;;;;;;18.10;67.57;98378.61;106386;1276;22542;-79
2022/08/05 01:45:33;;;;;;;;;;;;;;;18.07;67.76;98376.83;106424;1274;24256;-79
2022/08/05 01:48:02;;;;;;;6.00;4.70;;;;;;;18.03;67.92;98377.93;106396;1274;123865;-79
2022/08/05 01:50:37;;;;;;;6.60;4.70;;;;;;;17.99;67.97;98371.43;106216;1274;24315;-79
2022/08/05 01:53:10;;;;;;;6.70;4.50;;;;;;;17.94;68.08;98366.58;106323;1274;137447;-79
2022/08/05 01:55:39;;;;;;;5.80;4.60;;;;;;;17.92;67.99;98369.48;106211;1274;25320;-79
2022/08/05 01:58:08;;;;;;;;;;;;;;;17.89;67.97;98369.96;106110;1275;138059;-79
2022/08/05 02:00:41;;;;;;;8.90;4.90;;;;;;;17.87;68.01;98368.34;106479;1277;25335;-79
2022/08/05 02:03:32;;;;;;;5.60;4.90;;;;;;;17.86;68.20;98369.70;107155;1276;22551;-79
2022/08/05 02:06:01;;;;;;;5.50;4.30;;;;;;;17.84;68.09;98367.63;106488;1274;138171;-79
2022/08/05 02:08:28;;;;;;;8.80;4.60;;;;;;;17.82;68.24;98366.22;106748;1274;24360;-79
2022/08/05 02:11:03;;;;;;;8.70;4.60;;;;;;;17.78;68.52;98365.67;106273;1274;137850;-79
2022/08/05 02:13:38;;;;;;;6.50;4.70;;;;;;;17.73;68.92;98362.58;107054;1274;22544;-78
2022/08/05 02:16:14;;;;;;;5.30;4.80;;;;;;;17.66;69.32;98355.39;106542;1274;139150;-79
2022/08/05 02:18:49;;;;;;;8.10;5.10;;;;;;;17.60;69.48;98352.33;106334;1277;24289;-79
2022/08/05 02:21:20;;;;;;;8.30;5.20;;;;;;;17.58;69.53;98352.80;106093;1277;24313;-79
2022/08/05 02:23:52;;;;;;;7.00;4.60;;;;;;;17.56;69.70;98348.67;106284;1277;137531;-79
2022/08/05 02:26:31;;;;;;;9.80;5.80;;;;;;;17.54;69.51;98341.83;107258;1273;22681;-79
2022/08/05 02:28:59;;;;;;;7.70;5.40;;;;;;;17.51;69.84;98342.63;106250;1274;138154;-79
2022/08/05 02:31:29;;;;;;;9.10;5.60;;;;;;;17.49;69.88;98342.27;106309;1274;24421;-79
2022/08/05 02:34:00;;;;;;;8.60;5.20;;;;;;;17.47;69.95;98341.54;106142;1274;138427;-79
2022/08/05 02:36:29;;;;;;;6.80;4.70;;;;;;;17.45;70.07;98342.64;106293;1274;24293;-79
2022/08/05 02:38:57;;;;;;;8.80;5.70;;;;;;;17.45;70.32;98342.30;106348;1277;23909;-78
2022/08/05 02:41:25;;;;;;;7.80;5.50;;;;;;;17.43;70.38;98339.42;106405;1277;137416;-79
2022/08/05 02:43:55;;;;;;;7.20;5.30;;;;;;;17.42;70.46;98341.08;106365;1276;23938;-79
2022/08/05 02:46:23;;;;;;;6.70;5.50;;;;;;;17.39;70.42;98345.02;106061;1273;137701;-79
2022/08/05 02:48:51;;;;;;;5.90;5.20;;;;;;;17.40;70.59;98344.85;106476;1274;22567;-79
2022/08/05 02:51:18;;;;;;;11.60;5.70;;;;;;;17.40;70.46;98344.25;106806;1274;22600;-79
2022/08/05 02:53:47;;;;;;;6.50;4.90;;;;;;;17.41;70.55;98347.70;106611;1274;138471;-79
2022/08/05 02:56:16;;;;;;;6.90;5.00;;;;;;;17.41;70.41;98345.27;106185;1274;22553;-78
2022/08/05 02:58:44;;;;;;;7.00;5.00;;;;;;;17.39;70.57;98343.30;106204;1276;137844;-78
2022/08/05 03:01:16;;;;;;;6.70;5.20;;;;;;;17.37;70.61;98339.76;106467;1277;22634;-79
2022/08/05 03:03:47;;;;;;;5.90;5.40;;;;;;;17.37;70.73;98342.91;106068;1277;138076;-79
2022/08/05 03:06:16;;;;;;;7.40;5.70;;;;;;;17.36;70.81;98342.41;106544;1273;22539;-79
2022/08/05 03:08:44;;;;;;;9.50;5.60;;;;;;;17.36;70.85;98336.48;106600;1274;22788;-79
2022/08/05 03:11:22;;;;;;;8.40;5.60;;;;;;;17.35;70.93;98339.62;106471;1274;137546;-79
2022/08/05 03:13:50;;;;;;;7.50;5.10;;;;;;;17.33;70.83;98338.65;106609;1274;22702;-79
2022/08/05 03:16:17;;;;;;;6.60;5.40;;;;;;;17.32;71.05;98339.55;106818;1274;138597;-79
2022/08/05 03:18:44;;;;;;;7.10;5.70;;;;;;;17.31;71.02;98337.20;106225;1277;22540;-78
2022/08/05 03:21:12;;;;;;;8.20;5.50;;;;;;;17.29;71.09;98338.80;106554;1274;24411;-78
2022/08/05 03:23:41;;;;;;;7.70;5.70;;;;;;;17.26;71.17;98336.80;106075;1277;137656;-79
2022/08/05 03:26:09;;;;;;;9.40;5.60;;;;;;;17.20;71.50;98334.50;106812;1274;22616;-79
2022/08/05 03:28:37;;;;;;;6.60;5.20;;;;;;;17.18;71.55;98334.04;106673;1273;138204;-79
2022/08/05 03:31:04;;;;;;;6.40;5.60;;;;;;;17.17;71.49;98334.24;106756;1274;23923;-79
2022/08/05 03:33:31;;;;;;;6.40;5.80;;;;;;;17.18;71.71;98333.36;106229;1274;22550;-79
2022/08/05 03:35:59;;;;;;;7.90;5.50;;;;;;;17.21;71.83;98333.48;106711;1274;137740;-78
2022/08/05 03:38:26;;;;;;;6.40;5.30;;;;;;;17.24;71.69;98332.26;106173;1277;22553;-79
2022/08/05 03:40:53;;;;;;;11.30;6.00;;;;;;;17.25;71.74;98334.27;106496;1277;137879;-79
2022/08/05 03:43:23;;;;;;;8.60;5.80;;;;;;;17.24;71.65;98336.81;106430;1276;22595;-78
2022/08/05 03:45:53;;;;;;;6.80;5.30;;;;;;;17.24;71.62;98338.48;106355;1277;138894;-78
2022/08/05 03:48:20;;;;;;;8.00;5.80;;;;;;;17.24;72.03;98336.60;107013;1274;22934;-78
2022/08/05 03:50:52;;;;;;;9.20;6.00;;;;;;;17.24;71.63;98337.36;106062;1274;22574;-78
2022/08/05 03:53:31;;;;;;;11.70;5.90;;;;;;;17.21;71.47;98332.55;106307;1274;137509;-79
2022/08/05 03:56:12;;;;;;;12.00;6.00;;;;;;;17.14;71.29;98329.17;106255;1274;22542;-79
2022/08/05 03:58:43;;;;;;;9.10;5.50;;;;;;;17.07;71.69;98330.19;106153;1274;138097;-79
2022/08/05 04:01:13;;;;;;;9.10;6.60;;;;;;;17.04;71.90;98331.69;106613;1277;22557;-79
2022/08/05 04:03:43;;;;;;;8.40;6.50;;;;;;;17.03;71.83;98330.50;106101;1277;22660;-79
2022/08/05 04:06:11;;;;;;;9.00;6.30;;;;;;;17.02;72.23;98329.62;106864;1277;22601;-79
2022/08/05 04:08:39;;;;;;;9.40;5.90;;;;;;;17.03;72.46;98332.97;106530;1274;25187;-79
2022/08/05 04:11:06;;;;;;;10.00;6.10;;;;;;;17.06;72.69;98336.17;106233;1274;137663;-78
2022/08/05 04:13:33;;;;;;;8.00;5.80;;;;;;;17.09;72.51;98334.66;106384;1274;22547;-79
2022/08/05 04:16:00;;;;;;;9.10;6.00;;;;;;;17.13;72.63;98331.98;106181;1274;137577;-79
2022/08/05 04:18:27;;;;;;;9.90;6.40;;;;;;;17.16;72.92;98336.64;106173;1274;22562;-79
2022/08/05 04:20:56;;;;;;;9.20;6.40;;;;;;;17.17;72.57;98334.15;106154;1277;25091;-79
2022/08/05 04:23:26;;;;;;;7.50;5.70;;;;;;;17.15;72.46;98331.08;106005;1275;137794;-78
2022/08/05 04:25:53;;;;;;;9.90;5.40;;;;;;;17.13;72.53;98333.20;106383;1277;23968;-79
2022/08/05 04:28:20;;;;;;;9.20;6.10;;;;;;;17.15;72.77;98331.98;106234;1274;138035;-79
2022/08/05 04:30:47;;;;;;;9.40;5.70;;;;;;;17.17;73.15;98328.80;106497;1274;22615;-78
2022/08/05 04:33:15;;;;;;;10.80;5.90;;;;;;;17.19;73.09;98326.70;106397;1274;25458;-79
2022/08/05 04:35:43;;;;;;;7.80;5.20;;;;;;;17.23;73.23;98324.83;106475;1274;138541;-79
2022/08/05 04:38:10;;;;;;;8.00;5.50;;;;;;;17.31;73.24;98327.77;106663;1274;23902;-79
2022/08/05 04:40:38;;;;;;;6.90;5.70;;;;;;;17.39;73.34;98322.46;106639;1277;137606;-79
2022/08/05 04:43:06;;;;;;;7.70;5.20;;;;;;;17.46;73.17;98325.23;106312;1277;25335;-79
2022/08/05 04:45:33;;;;;;;8.50;5.80;;;;;;;17.53;73.00;98328.08;106392;1277;22602;-79
2022/08/05 04:48:09;;;;;;;8.00;5.80;;;;;;;17.58;72.82;98327.85;106216;1274;137512;-79
2022/08/05 04:50:47;;;;;;;7.20;5.50;;;;;;;17.63;72.92;98330.96;106270;1274;24368;-79
2022/08/05 04:53:18;;;;;;;8.20;5.30;;;;;;;17.70;72.99;98328.41;106608;1274;138218;-79
2022/08/05 04:55:45;;;;;;;7.90;5.10;;;;;;;17.76;72.84;98329.77;106439;1274;23324;-79
2022/08/05 04:58:16;;;;;;;7.60;5.10;;;;;;;17.84;72.72;98334.19;106760;1274;137989;-79
2022/08/05 05:00:43;;;;;;;7.10;5.10;;;;;;;17.93;72.79;98336.52;106835;1276;22649;-79
2022/08/05 05:03:11;;;;;;;6.40;5.30;;;;;;;17.99;72.70;98337.21;106197;1277;24354;-79
2022/08/05 05:05:38;;;;;;;6.30;5.60;;;;;;;18.05;72.75;98331.73;106183;1277;137529;-78
2022/08/05 05:08:07;;;;;;;6.50;5.80;;;;;;;18.09;72.47;98329.46;106063;1277;25339;-78
2022/08/05 05:10:41;;;;;;;11.40;5.20;;;;;;;18.12;72.28;98330.79;106307;1274;138118;-78
2022/08/05 05:13:13;;;;;;;8.30;5.30;;;;;;;18.18;72.06;98330.27;106390;1272;22564;-79
2022/08/05 05:15:41;;;;;;;8.30;4.70;;;;;;;18.25;71.87;98329.67;106456;1274;25353;-78
2022/08/05 05:18:11;;;;;;;6.00;5.40;;;;;;;18.29;71.50;98327.52;106764;1274;137301;-79
2022/08/05 05:20:38;;;;;;;7.30;5.40;;;;;;;18.34;71.41;98327.33;106483;1277;31844;-78
2022/08/05 05:23:05;;;;;;;6.80;5.20;;;;;;;18.40;71.38;98325.09;107041;1277;137485;-78
2022/08/05 05:25:32;;;;;;;8.90;5.20;;;;;;;18.45;71.20;98326.82;106482;1277;25296;-78
2022/08/05 05:27:58;;;;;;;8.40;5.70;;;;;;;18.50;71.13;98327.69;106852;1277;137720;-78
2022/08/05 05:30:25;;;;;;;9.70;5.60;;;;;;;18.54;70.90;98326.90;106417;1274;24539;-79
2022/08/05 05:32:52;;;;;;;9.80;5.30;;;;;;;18.59;70.87;98325.94;106500;1274;26641;-78
2022/08/05 05:35:21;;;;;;;8.30;5.50;;;;;;;18.65;70.80;98328.98;106942;1274;138390;-78
2022/08/05 05:37:52;;;;;;;6.30;5.20;;;;;;;18.72;70.77;98328.30;107488;1274;25351;-81
2022/08/05 05:40:22;;;;;;;8.40;5.20;;;;;;;18.81;70.77;98329.30;106486;1274;137614;-78
2022/08/05 05:42:49;;;;;;;7.40;5.10;;;;;;;18.87;70.53;98330.93;106470;1277;25205;-78
2022/08/05 05:45:17;;;;;;;6.50;5.20;;;;;;;18.92;70.39;98332.85;106566;1277;25997;-78
2022/08/05 05:47:44;;;;;;;8.60;5.20;;;;;;;18.99;70.39;98334.17;106388;1277;137567;-78
2022/08/05 05:50:14;;;;;;;6.90;5.20;;;;;;;19.06;70.21;98333.66;106749;1274;22534;-78
2022/08/05 05:52:42;;;;;;;6.60;5.10;;;;;;;19.12;69.94;98334.88;106380;1274;137515;-78
2022/08/05 05:55:11;;;;;;;6.40;5.10;;;;;;;19.20;69.78;98330.50;106209;1274;23005;-78
2022/08/05 05:57:39;;;;;;;11.10;5.10;;;;;;;19.28;69.74;98329.01;106574;1274;22551;-78
2022/08/05 06:00:12;;;;;;;7.90;5.30;;;;;;;19.35;69.65;98334.06;106693;1274;137730;-77
2022/08/05 06:02:40;;;;;;;8.20;5.10;;;;;;;19.43;69.49;98333.80;106246;1277;24344;-79
2022/08/05 06:05:08;;;;;;;6.70;4.70;;;;;;;19.51;69.36;98337.67;106559;1277;137884;-79
2022/08/05 06:07:35;;;;;;;7.00;4.90;;;;;;;19.58;69.25;98335.27;106313;1277;24421;-78
2022/08/05 06:10:04;;;;;;;5.70;4.70;;;;;;;19.64;69.18;98333.81;104956;1276;1342234;-77
2022/08/05 06:12:32;;;;;;;5.30;4.80;;;;;;;19.71;69.15;98332.13;106105;1276;22575;-78
2022/08/05 06:15:00;;;;;;;9.00;5.30;;;;;;;19.79;68.84;98330.10;106728;1275;22561;-78
2022/08/05 06:17:27;;;;;;;7.20;4.70;;;;;;;19.86;69.09;98329.73;106212;1276;138632;-78
2022/08/05 06:19:54;;;;;;;6.40;4.90;;;;;;;19.94;68.81;98331.22;106388;1276;22553;-77
2022/08/05 06:22:24;;;;;;;9.50;4.70;;;;;;;20.03;68.49;98334.23;106135;1277;137895;-78
2022/08/05 06:24:51;;;;;;;7.90;4.70;;;;;;;20.11;68.27;98339.63;106306;1277;22568;-77
2022/08/05 06:27:18;;;;;;;10.90;5.10;;;;;;;20.18;68.00;98336.39;106454;1277;22629;-77
2022/08/05 06:29:45;;;;;;;8.80;4.70;;;;;;;20.26;67.91;98341.11;106545;1276;137629;-78
2022/08/05 06:32:12;;;;;;;12.30;4.60;;;;;;;20.35;67.55;98338.88;106307;1276;22589;-78
2022/08/05 06:34:39;;;;;;;7.80;4.50;;;;;;;20.43;67.27;98335.85;105985;1276;137761;-79
2022/08/05 06:37:06;;;;;;;9.60;4.90;;;;;;;20.51;66.91;98333.73;106913;1276;22604;-79
2022/08/05 06:39:33;;;;;;;5.30;4.40;;;;;;;20.58;66.65;98331.52;106330;1276;24262;-78
2022/08/05 06:42:01;;;;;;;6.30;4.80;;;;;;;20.66;66.42;98331.69;107815;1276;137474;-77
2022/08/05 06:44:30;;;;;;;5.60;4.80;;;;;;;20.72;66.21;98326.63;106448;1277;22543;-77
2022/08/05 06:46:57;;;;;;;5.90;4.50;;;;;;;20.77;65.57;98322.72;106597;1277;137695;-78
2022/08/05 06:49:25;;;;;;;7.10;5.50;;;;;;;20.84;65.53;98326.47;106454;1276;23396;-77
2022/08/05 06:51:52;;;;;;;8.40;5.00;;;;;;;20.92;65.47;98325.71;106946;1276;138034;-79
2022/08/05 06:54:19;;;;;;;6.40;4.90;;;;;;;21.00;64.98;98323.29;106789;1275;25301;-79
2022/08/05 06:56:46;;;;;;;8.90;4.70;;;;;;;21.09;65.20;98322.74;106481;1276;22699;-79
2022/08/05 06:59:13;;;;;;;5.60;4.60;;;;;;;21.17;64.86;98320.56;106980;1276;137575;-79
2022/08/05 07:01:40;;;;;;;6.90;4.80;;;;;;;21.27;64.79;98318.54;106679;1276;24435;-80
2022/08/05 07:04:08;;;;;;;5.20;4.70;;;;;;;21.36;64.48;98313.06;106425;1277;138630;-79
2022/08/05 07:06:35;;;;;;;5.80;4.90;;;;;;;21.49;64.23;98312.63;106891;1277;22544;-79
2022/08/05 07:09:02;;;;;;;7.90;5.20;;;;;;;21.60;63.88;98317.41;106254;1277;24234;-79
2022/08/05 07:11:29;;;;;;;5.60;5.00;;;;;;;21.72;63.65;98316.24;107414;1276;137461;-79
2022/08/05 07:16:48;;;;;;;10.70;5.00;;;;;;;21.98;63.16;98313.26;106242;1276;137563;-82
2022/08/05 07:19:20;;;;;;;8.40;5.10;;;;;;;22.08;63.19;98312.16;106365;1276;24504;-82
2022/08/05 07:21:48;;;;;;;7.30;5.00;;;;;;;22.18;63.09;98315.73;107081;1276;137688;-81
2022/08/05 07:24:16;;;;;;;8.10;5.20;;;;;;;22.29;62.86;98318.04;106568;1277;25455;-82
2022/08/05 07:26:46;;;;;;;10.10;5.00;;;;;;;22.38;62.70;98318.54;106256;1277;24971;-80
2022/08/05 07:29:13;;;;;;;9.40;5.30;;;;;;;22.47;62.23;98318.41;106524;1277;137674;-78
2022/08/05 07:31:42;;;;;;;8.00;5.40;;;;;;;22.56;61.72;98316.45;106459;1276;25315;-78
2022/08/05 07:34:08;;;;;;;8.80;5.20;;;;;;;22.66;61.71;98322.11;105946;1276;137745;-78
2022/08/05 07:36:35;;;;;;;8.70;4.80;;;;;;;22.78;61.39;98324.77;106215;1276;23208;-79
2022/08/05 07:39:06;;;;;;;9.20;4.90;;;;;;;22.88;61.57;98322.86;106844;1276;22607;-79
2022/08/05 07:41:34;;;;;;;13.00;5.20;;;;;;;23.00;61.38;98317.14;106478;1276;137554;-78
2022/08/05 07:44:03;;;;;;;9.50;4.90;;;;;;;23.10;60.82;98317.81;106147;1277;22566;-77
2022/08/05 07:46:31;;;;;;;7.10;4.90;;;;;;;23.22;60.53;98318.42;106027;1277;137506;-77
2022/08/05 07:49:00;;;;;;;6.80;4.20;;;;;;;23.32;60.05;98320.38;106329;1277;22560;-79
2022/08/05 07:51:27;;;;;;;12.20;4.70;;;;;;;23.43;59.54;98317.00;106602;1277;22556;-81
2022/08/05 07:53:54;;;;;;;12.50;5.00;;;;;;;23.54;58.81;98320.65;106548;1277;137600;-79
2022/08/05 07:56:21;;;;;;;8.90;4.90;;;;;;;23.64;58.21;98317.06;105976;1277;22626;-82
2022/08/05 07:58:48;;;;;;;11.60;5.60;;;;;;;23.74;57.96;98312.95;106500;1277;137597;-78
2022/08/05 08:01:15;;;;;;;5.90;4.50;;;;;;;23.85;57.87;98312.77;106215;1277;24227;-81
2022/08/05 08:03:41;;;;;;;15.30;5.30;;;;;;;23.97;57.00;98310.56;107168;1279;24225;-80
2022/08/05 08:06:08;;;;;;;10.60;5.10;;;;;;;24.10;56.74;98315.57;107211;1277;137636;-80
2022/08/05 08:08:35;;;;;;;9.80;5.50;;;;;;;24.23;56.34;98309.41;107170;1277;23274;-81
2022/08/05 08:11:02;;;;;;;11.50;5.20;;;;;;;24.37;56.10;98308.98;107225;1277;137415;-80
2022/08/05 08:13:29;;;;;;;8.30;5.60;;;;;;;24.52;55.48;98311.02;107005;1277;23150;-79
2022/08/05 08:15:56;;;;;;;5.30;4.70;;;;;;;24.65;54.76;98311.45;106850;1277;138032;-79
2022/08/05 08:18:23;;;;;;;7.60;4.70;;;;;;;24.79;54.16;98311.42;106320;1276;24323;-79
2022/08/05 08:20:51;;;;;;;8.80;5.40;;;;;;;24.94;54.09;98311.45;107005;1277;24198;-80
2022/08/05 08:23:18;;;;;;;9.50;4.70;;;;;;;25.09;53.64;98312.77;106830;1277;137670;-80
2022/08/05 08:25:45;;;;;;;8.10;5.20;;;;;;;25.24;53.66;98310.84;106135;1277;22553;-82
2022/08/05 08:28:12;;;;;;;8.50;4.80;;;;;;;25.39;53.06;98310.25;106045;1277;137603;-80
2022/08/05 08:30:39;;;;;;;9.90;4.80;;;;;;;25.54;52.58;98313.10;106035;1277;22641;-79
2022/08/05 08:33:08;;;;;;;11.70;5.90;;;;;;;25.69;52.37;98311.04;106830;1277;22684;-79
2022/08/05 08:35:36;;;;;;;11.10;5.00;;;;;;;25.82;52.06;98312.57;106704;1277;137752;-78
2022/08/05 08:38:03;;;;;;;7.80;5.00;;;;;;;25.94;51.40;98314.51;106713;1277;22554;-79
2022/08/05 08:40:34;;;;;;;13.40;5.10;;;;;;;26.08;50.91;98314.77;106673;1277;137630;-77
2022/08/05 08:43:03;;;;;;;8.90;5.40;;;;;;;26.24;51.15;98316.23;106080;1277;25760;-78
2022/08/05 08:45:31;;;;;;;9.50;5.60;;;;;;;26.40;52.29;98311.52;105987;1277;24205;-78
2022/08/05 08:48:03;;;;;;;;;;;;;;;26.53;51.75;98311.75;106313;1277;137528;-79
2022/08/05 08:50:34;;;;;;;9.70;5.40;;;;;;;26.64;50.90;98312.15;106220;1277;22563;-79
2022/08/05 08:53:04;;;;;;;10.90;5.60;;;;;;;26.75;50.71;98313.48;106230;1277;138480;-78
2022/08/05 08:55:33;;;;;;;14.80;6.60;;;;;;;26.87;50.53;98312.63;106703;1277;22553;-81
2022/08/05 08:58:01;;;;;;;10.00;6.00;;;;;;;27.02;50.39;98313.52;106051;1277;137929;-78
2022/08/05 09:00:28;;;;;;;11.20;5.40;;;;;;;27.19;50.54;98316.27;106220;1277;22573;-79
2022/08/05 09:02:57;;;;;;;8.80;5.50;;;;;;;27.32;49.93;98311.78;106015;1277;23845;-79
2022/08/05 09:05:24;;;;;;;7.20;5.50;;;;;;;27.46;48.84;98307.48;106374;1280;137644;-82
2022/08/05 09:07:51;;;;;;;8.90;5.00;;;;;;;27.58;48.04;98307.55;106114;1277;22574;-79
2022/08/05 09:10:20;;;;;;;9.90;5.50;;;;;;;27.74;47.39;98308.50;106135;1277;138049;-79
2022/08/05 09:12:47;;;;;;;10.60;5.50;;;;;;;27.89;46.93;98306.85;106652;1277;22565;-78
2022/08/05 09:15:14;;;;;;;9.10;6.30;;;;;;;28.05;46.98;98307.64;106337;1274;22751;-77
2022/08/05 09:17:42;;;;;;;8.90;5.80;;;;;;;28.16;46.71;98309.80;106242;1274;137974;-79
2022/08/05 09:20:10;;;;;;;8.30;5.40;;;;;;;28.24;46.34;98306.39;106746;1274;22522;-78
2022/08/05 09:23:14;;;;;;;12.80;5.90;;;;;;;28.36;46.30;98309.28;107299;1274;138593;-79
2022/08/05 09:25:44;;;;;;;11.80;5.80;;;;;;;28.52;45.06;98304.89;105523;1285;30612;-78
2022/08/05 09:28:23;;;;;;;13.30;6.20;;;;;;;28.66;45.46;98300.80;106283;1284;138520;-77
2022/08/05 09:31:03;;;;;;;15.30;6.70;;;;;;;28.82;45.76;98298.06;106065;1284;22732;-77
2022/08/05 09:33:31;;;;;;;10.30;6.70;;;;;;;28.99;44.56;98291.26;105669;1283;23050;-79
2022/08/05 09:36:01;;;;;;;11.90;6.90;;;;;;;29.13;44.45;98292.41;105961;1283;137819;-79
2022/08/05 09:38:29;;;;;;;10.90;6.20;;;;;;;29.27;44.31;98290.27;105866;1284;23343;-79
2022/08/05 09:41:04;;;;;;;8.00;6.20;;;;;;;29.41;44.75;98290.66;105486;1283;137807;-78
2022/08/05 09:43:33;;;;;;;9.60;5.90;;;;;;;29.57;44.64;98290.11;105715;1283;22570;-78
2022/08/05 09:46:03;;;;;;;10.80;5.90;;;;;;;29.73;44.37;98285.98;105459;1283;137815;-78
2022/08/05 09:48:33;;;;;;;12.50;5.80;;;;;;;29.89;43.90;98281.91;105611;1284;22625;-78
2022/08/05 09:51:05;;;;;;;8.60;5.80;;;;;;;30.01;43.27;98280.80;106863;1284;22866;-78
2022/08/05 09:53:52;;;;;;;10.00;5.70;;;;;;;30.15;42.21;98278.81;106514;1283;137607;-78
2022/08/05 09:56:27;;;;;;;6.30;5.40;;;;;;;30.27;41.55;98274.33;105908;1283;31360;-79
2022/08/05 09:59:11;;;;;;;5.80;5.30;;;;;;;30.38;40.90;98277.88;105806;1282;138411;-79
2022/08/05 10:01:42;;;;;;;6.30;5.10;;;;;;;30.52;40.91;98273.14;106314;1278;23252;-79
2022/08/05 10:04:12;;;;;;;5.70;4.90;;;;;;;30.64;39.83;98269.02;106228;1277;137800;-81
2022/08/05 10:06:41;;;;;;;6.30;5.20;;;;;;;30.74;38.47;98272.60;106383;1277;22524;-79
2022/08/05 10:09:17;;;;;;;9.40;5.70;;;;;;;30.79;38.61;98274.00;106858;1277;22574;-78
2022/08/05 10:11:44;;;;;;;8.30;5.10;;;;;;;30.92;39.47;98268.55;106415;1277;137444;-78
2022/08/05 10:14:24;;;;;;;7.10;5.10;;;;;;;31.07;39.12;98265.65;106285;1280;22566;-82
2022/08/05 10:16:57;;;;;;;5.50;4.60;;;;;;;31.23;38.62;98268.46;106551;1278;137775;-77
2022/08/05 10:19:25;;;;;;;6.00;4.90;;;;;;;31.32;37.53;98267.33;106606;1278;22604;-80
2022/08/05 10:21:52;;;;;;;9.10;5.20;;;;;;;31.40;37.29;98268.20;106542;1278;138123;-80
2022/08/05 10:24:20;;;;;;;9.30;5.10;;;;;;;31.50;37.91;98268.79;106687;1277;22816;-80
2022/08/05 10:26:48;;;;;;;6.40;4.70;;;;;;;31.62;37.90;98269.37;106688;1277;22546;-80
2022/08/05 10:29:15;;;;;;;5.40;4.80;;;;;;;31.77;37.39;98266.48;107100;1277;138452;-79
2022/08/05 10:31:43;;;;;;;7.70;4.70;;;;;;;31.94;37.31;98262.10;106750;1277;25242;-82
2022/08/05 10:34:10;;;;;;;10.30;4.70;;;;;;;32.06;36.79;98264.38;106720;1277;137553;-78
2022/08/05 10:36:39;;;;;;;6.70;4.30;;;;;;;32.15;36.73;98259.42;106143;1277;22545;-79
2022/08/05 10:39:13;;;;;;;5.20;4.40;;;;;;;32.28;36.30;98257.71;106395;1278;22656;-79
2022/08/05 10:42:12;;;;;;;8.10;4.80;;;;;;;32.35;35.90;98252.84;106319;1279;138170;-78
2022/08/05 10:44:44;;;;;;;8.80;4.60;;;;;;;32.45;35.42;98252.40;106126;1278;24381;-80
2022/08/05 10:47:13;;;;;;;10.30;5.00;;;;;;;32.54;35.44;98247.91;106729;1278;137573;-80
2022/08/05 10:50:01;;;;;;;6.70;5.00;;;;;;;32.61;35.24;98249.73;106399;1277;22656;-78
2022/08/05 10:52:44;;;;;;;5.60;4.80;;;;;;;32.69;34.76;98247.41;106270;1277;138350;-79
2022/08/05 10:55:13;;;;;;;8.70;5.10;;;;;;;32.77;34.92;98244.30;106246;1280;22548;-78
2022/08/05 10:57:40;;;;;;;6.00;4.80;;;;;;;32.80;34.49;98240.68;106536;1277;22266;-78
2022/08/05 11:00:20;;;;;;;5.50;4.80;;;;;;;32.87;34.19;98239.49;106352;1277;137313;-79
2022/08/05 11:03:12;;;;;;;7.30;4.70;;;;;;;32.96;34.06;98236.77;106492;1277;24697;-80
2022/08/05 11:05:39;;;;;;;6.00;4.60;;;;;;;33.07;33.93;98239.74;106824;1277;137596;-79
2022/08/05 11:08:08;;;;;;;6.90;4.60;;;;;;;33.15;33.16;98235.59;106540;1277;22633;-80
2022/08/05 11:10:38;;;;;;;6.90;4.50;;;;;;;33.24;33.50;98238.10;106654;1279;137651;-79
2022/08/05 11:13:06;;;;;;;7.00;5.00;;;;;;;33.33;32.31;98232.86;106396;1277;24212;-80
2022/08/05 11:15:40;;;;;;;7.70;4.80;;;;;;;33.39;32.65;98233.51;106727;1277;22541;-79
2022/08/05 11:18:21;;;;;;;7.60;4.90;;;;;;;33.51;32.45;98233.01;106731;1277;137436;-80
2022/08/05 11:20:50;;;;;;;4.70;4.30;;;;;;;33.66;32.32;98227.86;106409;1277;22599;-79
2022/08/05 11:23:42;;;;;;;8.00;4.40;;;;;;;33.78;31.97;98230.66;106099;1277;137610;-80
2022/08/05 11:26:15;;;;;;;7.00;4.40;;;;;;;33.86;30.87;98226.61;106451;1277;22585;-80
2022/08/05 11:28:45;;;;;;;5.70;4.40;;;;;;;33.91;30.76;98226.52;106624;1277;137624;-80
2022/08/05 11:31:11;;;;;;;5.80;4.10;;;;;;;33.98;30.19;98226.59;106616;1277;25314;-79
2022/08/05 11:33:45;;;;;;;6.00;4.60;;;;;;;34.08;30.37;98221.93;106185;1278;22735;-78
2022/08/05 11:36:15;;;;;;;4.70;4.20;;;;;;;34.16;30.81;98222.09;106869;1277;22423;-78